Immanuel Mission, Arizona
Current Conditions -  °F | °C
As of 5:53 PM on Monday 20 Oct 2014 (Local Time) from KCEZ Reporting Station
Broken Clouds Broken Clouds  
Wind Chill: 66°   Ceiling: 10000
Heat Index: 66°   Visibility: 10mi
Dew Point: 38°   Wind: 9mph
Humidity: 36%   Direction: 150°SSE
Pressure: 30.11"   Gusts: NA
Location:  36.7518°N, 109.365°W
Report Text: KCEZ 202353Z AUTO 15008KT 10SM FEW080 BKN100 19/03 A3011 RMK AO2 SLP152 T01890033 10222 20183 56006
Loading
Personal Weather Stations






























Interactive Weather Map
Tropical Storm Tracking
New forecast layout! Learn more

10-Day Weather Forecast

Advertisements
Track Severe Weather on mobile